Time;durP1;ratioP1;P1;durP2;ratioP2;P2;SDS_P1;SDS_P2;PMS_P1;PMS_P2;Temp;Humidity;BMP_temperature;BMP_pressure;BME280_temperature;BME280_humidity;BME280_pressure;Samples;Min_cycle;Max_cycle;Signal;HPM_P1;HPM_P2
2021/11/23 00:01:25;;;;;;;8.10;1.50;;;19.90;99.90;;;;;;5073284;28;20262;-71
2021/11/23 00:03:52;;;;;;;14.17;1.50;;;19.90;99.90;;;;;;5105494;28;20308;-69
2021/11/23 00:06:21;;;;;;;7.27;1.57;;;19.70;99.90;;;;;;5073744;28;20175;-70
2021/11/23 00:08:48;;;;;;;9.33;1.50;;;19.70;99.90;;;;;;5073416;28;20187;-69
2021/11/23 00:11:15;;;;;;;4.73;1.17;;;19.80;99.90;;;;;;5071499;28;20603;-69
2021/11/23 00:13:43;;;;;;;12.03;2.17;;;20.00;99.90;;;;;;5073064;28;20227;-70
2021/11/23 00:16:10;;;;;;;9.00;1.90;;;20.00;99.90;;;;;;5073001;28;20222;-69
2021/11/23 00:18:37;;;;;;;6.10;1.43;;;20.00;99.90;;;;;;5066852;28;20191;-70
2021/11/23 00:21:05;;;;;;;5.40;1.60;;;20.10;99.90;;;;;;5073497;28;20193;-69
2021/11/23 00:23:32;;;;;;;7.20;1.63;;;20.20;99.90;;;;;;5076718;28;20179;-70
2021/11/23 00:26:00;;;;;;;9.57;1.70;;;20.60;99.90;;;;;;5071984;28;20191;-68
2021/11/23 00:28:27;;;;;;;5.93;1.63;;;20.80;99.90;;;;;;5069360;28;20179;-69
2021/11/23 00:30:55;;;;;;;8.20;1.40;;;21.00;99.90;;;;;;5071976;28;20187;-69
2021/11/23 00:33:23;;;;;;;4.77;1.10;;;20.90;99.90;;;;;;5070998;28;20229;-70
2021/11/23 00:35:50;;;;;;;7.63;1.70;;;20.80;99.90;;;;;;5069209;28;20208;-70
2021/11/23 00:38:18;;;;;;;11.23;2.50;;;20.70;99.90;;;;;;5073891;28;20190;-70
2021/11/23 00:40:45;;;;;;;10.33;2.57;;;20.50;99.90;;;;;;5071000;28;20786;-70
2021/11/23 00:43:13;;;;;;;8.60;2.10;;;20.40;99.90;;;;;;5072025;28;20179;-69
2021/11/23 00:45:41;;;;;;;10.63;2.57;;;20.50;99.90;;;;;;5071524;28;20190;-70
2021/11/23 00:48:10;;;;;;;11.83;2.03;;;20.40;99.90;;;;;;5075101;28;20280;-70
2021/11/23 00:50:38;;;;;;;12.00;1.77;;;20.40;99.90;;;;;;5071297;28;20187;-70
2021/11/23 00:53:06;;;;;;;12.77;2.40;;;20.60;99.90;;;;;;5070436;28;20206;-71
2021/11/23 00:55:35;;;;;;;11.57;2.63;;;20.90;99.90;;;;;;5070781;28;20645;-70
2021/11/23 00:58:02;;;;;;;16.93;2.53;;;21.20;99.90;;;;;;5070443;28;20211;-71
2021/11/23 01:00:29;;;;;;;10.47;1.90;;;21.40;99.90;;;;;;5070039;28;20187;-71
2021/11/23 01:02:57;;;;;;;15.70;2.63;;;21.50;99.90;;;;;;5070558;28;20182;-70
2021/11/23 01:05:24;;;;;;;7.73;1.57;;;21.60;99.90;;;;;;5069969;28;20558;-71
2021/11/23 01:07:51;;;;;;;13.10;2.07;;;21.00;99.90;;;;;;5071648;28;20175;-69
2021/11/23 01:10:19;;;;;;;11.57;2.40;;;20.90;99.90;;;;;;5068129;28;20180;-69
2021/11/23 01:12:47;;;;;;;19.83;2.77;;;21.00;99.90;;;;;;5067310;28;20665;-69
2021/11/23 01:15:14;;;;;;;14.43;2.83;;;20.80;99.90;;;;;;5072596;28;20193;-68
2021/11/23 01:17:42;;;;;;;12.73;2.40;;;20.90;99.90;;;;;;5071910;28;20318;-69
2021/11/23 01:20:11;;;;;;;13.00;2.47;;;21.00;99.90;;;;;;5072407;28;20229;-68
2021/11/23 01:22:40;;;;;;;9.63;2.60;;;21.00;99.90;;;;;;5072100;28;20180;-68
2021/11/23 01:25:08;;;;;;;9.37;1.70;;;21.00;99.90;;;;;;5072087;28;20202;-68
2021/11/23 01:27:35;;;;;;;9.80;2.00;;;21.30;99.90;;;;;;5071534;28;20206;-69
2021/11/23 01:30:05;;;;;;;7.47;1.67;;;21.40;99.90;;;;;;5072250;28;20203;-67
2021/11/23 01:32:32;;;;;;;10.27;2.23;;;21.50;99.90;;;;;;5071460;28;20592;-68
2021/11/23 01:34:59;;;;;;;10.67;1.70;;;21.50;99.90;;;;;;5071634;28;20262;-68
2021/11/23 01:37:27;;;;;;;15.40;2.23;;;21.50;99.90;;;;;;5071228;28;20698;-68
2021/11/23 01:39:54;;;;;;;13.80;2.87;;;21.60;99.90;;;;;;5071779;28;20589;-70
2021/11/23 01:42:21;;;;;;;11.53;2.00;;;21.90;99.90;;;;;;5070827;28;20175;-70
2021/11/23 01:44:49;;;;;;;11.53;2.57;;;22.00;99.90;;;;;;5071437;28;20171;-69
2021/11/23 01:47:16;;;;;;;12.77;2.30;;;22.00;99.90;;;;;;5066967;28;20179;-70
2021/11/23 01:49:43;;;;;;;8.57;2.00;;;21.80;99.90;;;;;;5071956;28;20175;-69
2021/11/23 01:52:11;;;;;;;6.33;1.53;;;21.80;99.90;;;;;;5070170;28;20366;-70
2021/11/23 01:54:38;;;;;;;6.60;1.20;;;21.60;99.90;;;;;;5071632;28;20190;-69
2021/11/23 01:57:06;;;;;;;7.73;1.40;;;21.70;99.90;;;;;;5071682;28;20624;-69
2021/11/23 01:59:33;;;;;;;8.47;1.43;;;22.20;99.90;;;;;;5070588;28;20196;-69
2021/11/23 02:02:01;;;;;;;5.73;1.13;;;22.30;99.90;;;;;;5070929;28;20175;-68
2021/11/23 02:04:29;;;;;;;4.57;1.30;;;22.30;99.90;;;;;;5071796;28;20183;-70
2021/11/23 02:06:56;;;;;;;5.17;1.40;;;22.20;99.90;;;;;;5071494;28;20218;-68
2021/11/23 02:09:23;;;;;;;6.03;1.70;;;22.30;99.90;;;;;;5067729;28;20222;-70
2021/11/23 02:11:52;;;;;;;9.30;1.50;;;22.10;99.90;;;;;;5070742;28;20187;-69
2021/11/23 02:14:20;;;;;;;9.37;1.40;;;21.50;99.90;;;;;;5071296;28;20602;-70
2021/11/23 02:16:48;;;;;;;5.87;1.60;;;21.10;99.90;;;;;;5071505;28;20635;-69
2021/11/23 02:19:15;;;;;;;7.80;1.63;;;21.20;99.90;;;;;;5071065;28;20314;-69
2021/11/23 02:21:42;;;;;;;11.97;2.33;;;21.20;99.90;;;;;;5069740;28;20243;-69
2021/11/23 02:24:10;;;;;;;6.77;1.50;;;21.40;99.90;;;;;;5071232;28;20202;-70
2021/11/23 02:26:37;;;;;;;5.77;1.30;;;21.50;99.90;;;;;;5071312;28;20167;-69
2021/11/23 02:29:04;;;;;;;7.50;1.30;;;21.50;99.90;;;;;;5070600;28;20183;-71
2021/11/23 02:31:32;;;;;;;6.70;1.07;;;21.30;99.90;;;;;;5070997;28;20179;-69
2021/11/23 02:33:59;;;;;;;6.57;1.50;;;21.20;99.90;;;;;;5071247;28;20194;-70
2021/11/23 02:36:27;;;;;;;6.73;1.40;;;21.30;99.90;;;;;;5070574;28;20206;-70
2021/11/23 02:38:54;;;;;;;7.00;1.33;;;21.30;99.90;;;;;;5070590;28;20167;-70
2021/11/23 02:41:22;;;;;;;4.57;1.50;;;21.30;99.90;;;;;;5071547;28;20228;-70
2021/11/23 02:43:50;;;;;;;11.80;1.80;;;21.30;99.90;;;;;;5064313;28;20279;-70
2021/11/23 02:46:17;;;;;;;5.47;1.37;;;21.20;99.90;;;;;;5071101;28;20206;-70
2021/11/23 02:48:44;;;;;;;6.30;1.33;;;21.20;99.90;;;;;;5071430;28;20233;-70
2021/11/23 02:53:39;;;;;;;5.20;1.53;;;21.10;99.90;;;;;;5070795;28;20551;-72
2021/11/23 02:56:07;;;;;;;5.43;1.60;;;21.40;99.90;;;;;;5070500;28;20188;-72
2021/11/23 02:58:35;;;;;;;9.70;2.43;;;21.60;99.90;;;;;;5070745;28;20191;-70
2021/11/23 03:01:05;;;;;;;10.80;2.07;;;21.60;99.90;;;;;;5070709;28;20182;-70
2021/11/23 03:03:33;;;;;;;8.90;2.17;;;21.70;99.90;;;;;;5070674;28;20551;-71
2021/11/23 03:06:01;;;;;;;10.67;2.20;;;21.70;99.90;;;;;;5070447;28;20228;-71
2021/11/23 03:08:29;;;;;;;8.93;2.17;;;21.80;99.90;;;;;;5070779;28;20614;-70
2021/11/23 03:10:56;;;;;;;15.00;3.03;;;21.90;99.90;;;;;;5070759;28;20692;-72
2021/11/23 03:13:24;;;;;;;9.37;1.97;;;22.00;99.90;;;;;;5070454;28;20219;-72
2021/11/23 03:15:51;;;;;;;15.70;2.03;;;22.10;99.90;;;;;;5067947;28;20573;-72
2021/11/23 03:18:18;;;;;;;7.23;1.63;;;22.10;99.90;;;;;;5070012;28;20643;-71
2021/11/23 03:20:46;;;;;;;11.37;1.90;;;21.90;99.90;;;;;;5068529;28;20184;-71
2021/11/23 03:23:14;;;;;;;6.17;1.73;;;21.70;99.90;;;;;;5073002;28;20534;-70
2021/11/23 03:25:41;;;;;;;9.77;1.70;;;21.60;99.90;;;;;;5074165;28;20179;-69
2021/11/23 03:28:09;;;;;;;8.27;1.53;;;21.40;99.90;;;;;;5074675;28;20282;-70
2021/11/23 03:30:37;;;;;;;10.40;1.87;;;21.40;99.90;;;;;;5073017;28;20187;-70
2021/11/23 03:33:07;;;;;;;7.17;1.53;;;21.40;99.90;;;;;;5074228;28;20669;-70
2021/11/23 03:35:38;;;;;;;6.20;1.70;;;21.50;99.90;;;;;;5073719;28;20187;-71
2021/11/23 03:38:08;;;;;;;9.03;1.67;;;21.50;99.90;;;;;;5072782;28;20289;-71
2021/11/23 03:40:37;;;;;;;10.30;1.87;;;21.60;99.90;;;;;;5074550;28;20207;-71
2021/11/23 03:43:06;;;;;;;10.23;1.83;;;21.60;99.90;;;;;;5073937;28;20656;-71
2021/11/23 03:45:34;;;;;;;9.17;1.73;;;21.70;99.90;;;;;;5071165;28;20181;-71
2021/11/23 03:48:03;;;;;;;7.40;1.53;;;21.70;99.90;;;;;;5071236;28;20182;-71
2021/11/23 03:50:31;;;;;;;10.73;2.23;;;21.80;99.90;;;;;;5072907;28;20178;-72
2021/11/23 03:52:59;;;;;;;13.27;2.07;;;22.00;99.90;;;;;;5072461;28;20551;-70
2021/11/23 03:55:28;;;;;;;6.60;1.37;;;22.20;99.90;;;;;;5071554;28;20729;-72
2021/11/23 03:57:57;;;;;;;4.47;1.33;;;22.20;99.90;;;;;;5071034;28;20222;-70
2021/11/23 04:00:24;;;;;;;10.37;1.83;;;22.20;99.90;;;;;;5067064;28;20263;-71
2021/11/23 04:02:53;;;;;;;11.43;1.47;;;22.10;99.90;;;;;;5072079;28;20233;-70
2021/11/23 04:05:20;;;;;;;10.50;1.90;;;22.10;99.90;;;;;;5074142;28;20195;-70
2021/11/23 04:07:47;;;;;;;8.43;1.70;;;22.10;99.90;;;;;;5073285;28;20266;-70
2021/11/23 04:10:17;;;;;;;4.00;1.43;;;22.00;99.90;;;;;;5066002;28;20252;-72
2021/11/23 04:12:46;;;;;;;8.03;2.40;;;21.80;99.90;;;;;;5073355;28;20288;-71
2021/11/23 04:15:14;;;;;;;7.90;1.50;;;21.70;99.90;;;;;;5073212;28;20195;-70
2021/11/23 04:17:41;;;;;;;9.23;1.70;;;21.70;99.90;;;;;;5070921;28;20756;-71
2021/11/23 04:20:09;;;;;;;12.27;2.77;;;21.60;99.90;;;;;;5073282;28;20233;-69
2021/11/23 04:22:38;;;;;;;13.57;2.07;;;21.30;99.90;;;;;;5073634;28;20629;-72
2021/11/23 04:25:08;;;;;;;8.87;1.87;;;20.90;99.90;;;;;;5073725;28;20175;-73
2021/11/23 04:27:35;;;;;;;9.03;2.03;;;20.70;99.90;;;;;;5073318;28;20653;-70
2021/11/23 04:30:05;;;;;;;8.73;1.90;;;20.60;99.90;;;;;;5073884;28;20979;-69
2021/11/23 04:32:33;;;;;;;12.03;2.20;;;20.40;99.90;;;;;;5072565;28;20178;-70
2021/11/23 04:35:00;;;;;;;11.80;2.03;;;20.50;99.90;;;;;;5070989;28;20179;-68
2021/11/23 04:37:27;;;;;;;10.70;2.33;;;20.40;99.90;;;;;;5072770;28;20242;-69
2021/11/23 04:39:55;;;;;;;11.47;1.70;;;20.40;99.90;;;;;;5072464;28;20202;-70
2021/11/23 04:42:22;;;;;;;9.80;1.50;;;20.40;99.90;;;;;;5073588;28;20214;-70
2021/11/23 04:44:49;;;;;;;8.13;1.57;;;20.30;99.90;;;;;;5072940;28;20187;-71
2021/11/23 04:47:17;;;;;;;11.13;1.90;;;20.60;99.90;;;;;;5066475;28;20206;-70
2021/11/23 04:49:44;;;;;;;10.50;1.80;;;20.60;99.90;;;;;;5073052;28;20637;-71
2021/11/23 04:52:11;;;;;;;8.03;1.60;;;20.50;99.90;;;;;;5073051;28;20262;-68
2021/11/23 04:54:39;;;;;;;10.73;2.13;;;20.50;99.90;;;;;;5071817;28;20506;-70
2021/11/23 04:57:07;;;;;;;15.93;2.40;;;20.60;99.90;;;;;;5072419;28;20328;-69
2021/11/23 04:59:34;;;;;;;6.73;1.27;;;20.60;99.90;;;;;;5073191;28;20203;-70
2021/11/23 05:02:01;;;;;;;9.17;1.97;;;20.50;99.90;;;;;;5072910;28;20540;-69
2021/11/23 05:04:29;;;;;;;13.47;2.20;;;20.70;99.90;;;;;;5070524;28;20260;-69
2021/11/23 05:06:56;;;;;;;8.80;2.10;;;21.00;99.90;;;;;;5073114;28;20597;-68
2021/11/23 05:09:23;;;;;;;9.70;1.90;;;21.30;99.90;;;;;;5071715;28;20207;-69
2021/11/23 05:11:50;;;;;;;9.33;1.40;;;21.50;99.90;;;;;;5072173;28;20203;-68
2021/11/23 05:14:18;;;;;;;12.20;1.60;;;21.80;99.90;;;;;;5072398;28;20640;-69
2021/11/23 05:16:45;;;;;;;7.30;1.40;;;21.80;99.90;;;;;;5070713;28;20203;-68
2021/11/23 05:19:13;;;;;;;13.60;2.00;;;21.60;99.90;;;;;;5071829;28;20708;-68
2021/11/23 05:21:40;;;;;;;6.87;1.27;;;21.60;99.90;;;;;;5071420;28;20182;-68
2021/11/23 05:24:11;;;;;;;11.27;1.83;;;21.50;99.90;;;;;;5072274;28;20167;-68
2021/11/23 05:26:39;;;;;;;9.60;1.43;;;21.40;99.90;;;;;;5072494;28;20179;-68
2021/11/23 05:29:07;;;;;;;14.83;2.70;;;21.40;99.90;;;;;;5072463;28;20183;-68
2021/11/23 05:31:35;;;;;;;11.63;2.27;;;21.40;99.90;;;;;;5072508;28;20178;-67
2021/11/23 05:34:02;;;;;;;11.47;1.63;;;21.40;99.90;;;;;;5072132;28;20184;-67
2021/11/23 05:36:29;;;;;;;8.93;1.77;;;21.90;99.90;;;;;;5072406;28;20277;-67
2021/11/23 05:38:57;;;;;;;8.40;2.27;;;22.40;99.90;;;;;;5072328;28;20194;-67
2021/11/23 05:41:24;;;;;;;12.27;2.07;;;23.00;99.90;;;;;;5072255;28;20202;-67
2021/11/23 05:43:52;;;;;;;10.00;1.63;;;22.90;99.90;;;;;;5069171;28;20183;-68
2021/11/23 05:46:19;;;;;;;13.43;2.00;;;23.00;99.90;;;;;;5071847;28;20182;-68
2021/11/23 05:48:47;;;;;;;9.00;1.93;;;23.70;99.90;;;;;;5072580;28;20266;-68
2021/11/23 05:51:14;;;;;;;10.97;2.10;;;23.60;99.90;;;;;;5072081;28;20194;-68
2021/11/23 05:53:41;;;;;;;8.40;1.73;;;23.10;99.90;;;;;;5070942;28;20174;-69
2021/11/23 05:56:09;;;;;;;7.57;1.70;;;22.90;99.90;;;;;;5071597;28;20277;-68
2021/11/23 05:58:37;;;;;;;7.43;1.40;;;22.90;99.90;;;;;;5071941;28;20186;-69
2021/11/23 06:01:06;;;;;;;8.23;2.17;;;22.70;99.90;;;;;;5071208;28;20171;-70
2021/11/23 06:03:34;;;;;;;9.33;1.80;;;22.50;99.90;;;;;;5071645;28;20556;-70
2021/11/23 06:06:02;;;;;;;12.90;1.83;;;22.40;99.90;;;;;;5071038;28;20193;-70
2021/11/23 06:08:30;;;;;;;7.40;1.87;;;22.30;99.90;;;;;;5071176;28;20534;-69
2021/11/23 06:10:57;;;;;;;10.70;1.57;;;22.10;99.90;;;;;;5071728;28;20182;-70
2021/11/23 06:13:25;;;;;;;8.40;1.60;;;21.90;99.90;;;;;;5066670;28;20239;-70
2021/11/23 06:15:52;;;;;;;6.57;1.50;;;21.70;99.90;;;;;;5068538;28;20228;-70
2021/11/23 06:18:20;;;;;;;7.40;1.47;;;21.60;99.90;;;;;;5070827;28;20306;-70
2021/11/23 06:20:49;;;;;;;13.33;2.10;;;21.50;99.90;;;;;;5071940;28;20559;-70
2021/11/23 06:23:18;;;;;;;9.27;1.77;;;21.50;99.90;;;;;;5070201;28;20213;-70
2021/11/23 06:25:47;;;;;;;8.97;1.67;;;21.70;99.90;;;;;;5070969;28;20217;-70
2021/11/23 06:28:16;;;;;;;9.00;1.47;;;21.70;99.90;;;;;;5071418;28;20233;-70
2021/11/23 06:30:44;;;;;;;9.23;1.60;;;21.80;99.90;;;;;;5070695;28;20590;-71
2021/11/23 06:33:12;;;;;;;9.93;2.13;;;21.90;99.90;;;;;;5070768;28;20651;-70
2021/11/23 06:35:39;;;;;;;9.80;1.80;;;21.70;99.90;;;;;;5071578;28;20633;-70
2021/11/23 06:38:07;;;;;;;11.80;1.60;;;21.40;99.90;;;;;;5070792;28;20235;-70
2021/11/23 06:40:38;;;;;;;8.57;1.83;;;21.40;99.90;;;;;;5071211;28;20531;-70
2021/11/23 06:43:06;;;;;;;11.60;2.23;;;21.40;99.90;;;;;;5068944;28;20934;-71
2021/11/23 06:45:34;;;;;;;7.73;1.53;;;21.30;99.90;;;;;;5071387;28;20183;-70
2021/11/23 06:48:02;;;;;;;8.27;3.10;;;21.20;99.90;;;;;;5070929;28;20234;-71
2021/11/23 06:50:32;;;;;;;13.03;2.50;;;21.10;99.90;;;;;;5068279;28;20183;-70
2021/11/23 06:53:08;;;;;;;7.30;1.97;;;21.00;99.90;;;;;;5071118;28;20180;-71
2021/11/23 06:55:35;;;;;;;12.67;2.00;;;21.00;99.90;;;;;;5071032;28;20651;-71
2021/11/23 06:58:03;;;;;;;14.77;2.27;;;20.80;99.90;;;;;;5069149;28;20254;-71
2021/11/23 07:00:30;;;;;;;13.80;2.53;;;20.80;99.90;;;;;;5070923;28;20176;-71
2021/11/23 07:02:58;;;;;;;10.43;3.03;;;20.80;99.90;;;;;;5070991;28;20541;-69
2021/11/23 07:05:26;;;;;;;8.83;1.90;;;20.70;99.90;;;;;;5071739;28;20629;-71
2021/11/23 07:07:56;;;;;;;11.80;2.07;;;20.70;99.90;;;;;;5070880;28;20188;-72
2021/11/23 07:10:24;;;;;;;11.57;2.00;;;20.80;99.90;;;;;;5071823;28;20258;-71
2021/11/23 07:12:52;;;;;;;12.87;2.03;;;20.70;99.90;;;;;;5070960;28;20270;-71
2021/11/23 07:15:20;;;;;;;9.57;2.40;;;20.80;99.90;;;;;;5071252;28;20187;-72
2021/11/23 07:17:47;;;;;;;11.17;3.10;;;20.90;99.90;;;;;;5067028;28;20222;-72
2021/11/23 07:20:14;;;;;;;9.87;2.07;;;20.90;99.90;;;;;;5071033;28;20183;-70
2021/11/23 07:22:42;;;;;;;15.00;3.23;;;20.80;99.90;;;;;;5071584;28;20253;-72
2021/11/23 07:25:10;;;;;;;11.37;3.23;;;20.80;99.90;;;;;;5070505;28;20225;-70
2021/11/23 07:27:37;;;;;;;9.03;2.30;;;20.80;99.90;;;;;;5070864;28;20637;-71
2021/11/23 07:30:06;;;;;;;14.17;2.77;;;20.70;99.90;;;;;;5070301;28;20183;-68
2021/11/23 07:32:35;;;;;;;11.17;2.23;;;20.60;99.90;;;;;;5071401;28;20188;-69
2021/11/23 07:35:03;;;;;;;11.90;1.97;;;20.60;99.90;;;;;;5071371;28;20179;-70
2021/11/23 07:37:36;;;;;;;9.67;2.37;;;20.60;99.90;;;;;;5065821;28;20295;-69
2021/11/23 07:40:08;;;;;;;15.50;4.77;;;20.60;99.90;;;;;;5070500;28;20546;-70
2021/11/23 07:42:35;;;;;;;10.40;1.90;;;20.60;99.90;;;;;;5070833;28;20179;-71
2021/11/23 07:45:03;;;;;;;6.90;1.70;;;20.50;99.90;;;;;;5070928;28;20191;-69
2021/11/23 07:47:31;;;;;;;7.83;1.50;;;20.50;99.90;;;;;;5066180;28;20195;-69
2021/11/23 07:49:58;;;;;;;7.97;1.40;;;20.50;99.90;;;;;;5066976;28;20276;-69
2021/11/23 07:52:25;;;;;;;11.97;1.83;;;20.50;99.90;;;;;;5069447;28;20191;-69
2021/11/23 07:54:53;;;;;;;7.13;2.00;;;20.40;99.90;;;;;;5070924;28;20218;-69
2021/11/23 07:57:20;;;;;;;9.50;1.73;;;20.40;99.90;;;;;;5067882;28;20207;-69
2021/11/23 07:59:47;;;;;;;14.03;1.93;;;20.40;99.90;;;;;;5069943;28;20192;-69
2021/11/23 08:02:15;;;;;;;6.40;1.63;;;20.40;99.90;;;;;;5070233;28;20630;-69
2021/11/23 08:04:42;;;;;;;13.03;1.80;;;20.40;99.90;;;;;;5070933;28;20255;-70
2021/11/23 08:07:09;;;;;;;7.20;1.50;;;20.30;99.90;;;;;;5070392;28;20195;-71
2021/11/23 08:09:37;;;;;;;10.20;2.10;;;20.20;99.90;;;;;;5074266;28;20731;-68
2021/11/23 08:12:04;;;;;;;10.43;2.60;;;20.20;99.90;;;;;;5073889;28;20199;-70
2021/11/23 08:14:32;;;;;;;12.10;2.40;;;20.10;99.90;;;;;;5072843;28;20223;-69
2021/11/23 08:16:59;;;;;;;12.40;2.90;;;20.00;99.90;;;;;;5071334;28;20209;-69
2021/11/23 08:19:26;;;;;;;9.17;1.80;;;20.00;99.90;;;;;;5074268;28;20529;-68
2021/11/23 08:21:54;;;;;;;5.87;1.70;;;19.90;99.90;;;;;;5073505;28;20236;-68
2021/11/23 08:24:21;;;;;;;8.50;1.70;;;19.80;99.90;;;;;;5074182;28;20218;-70
2021/11/23 08:26:48;;;;;;;8.33;2.13;;;19.80;99.90;;;;;;5072301;28;20175;-69
2021/11/23 08:29:16;;;;;;;7.50;1.93;;;19.80;99.90;;;;;;5073598;28;20219;-69
2021/11/23 08:31:43;;;;;;;11.83;2.73;;;19.80;99.90;;;;;;5072523;28;20184;-70
2021/11/23 08:34:11;;;;;;;14.23;2.90;;;19.80;99.90;;;;;;5069793;28;20191;-68
2021/11/23 08:36:39;;;;;;;9.90;2.33;;;19.80;99.90;;;;;;5067506;28;20264;-68
2021/11/23 08:39:06;;;;;;;14.20;1.80;;;19.70;99.90;;;;;;5073722;28;20175;-69
2021/11/23 08:41:34;;;;;;;8.57;1.93;;;19.70;99.90;;;;;;5073616;28;20202;-68
2021/11/23 08:44:02;;;;;;;9.57;1.80;;;19.60;99.90;;;;;;5073769;28;20183;-68
2021/11/23 08:46:29;;;;;;;8.00;1.97;;;19.50;99.90;;;;;;5073114;28;20183;-69
2021/11/23 08:48:57;;;;;;;9.63;2.13;;;19.50;99.90;;;;;;5073251;28;20171;-69
2021/11/23 08:51:28;;;;;;;8.67;1.80;;;19.50;99.90;;;;;;5073676;28;20190;-69
2021/11/23 08:53:55;;;;;;;8.13;2.23;;;19.50;99.90;;;;;;5073769;28;20267;-69
2021/11/23 08:56:23;;;;;;;12.20;2.60;;;19.50;99.90;;;;;;5072828;28;20214;-70
2021/11/23 08:58:53;;;;;;;9.97;2.33;;;19.40;99.90;;;;;;5072673;28;20194;-69
2021/11/23 09:01:24;;;;;;;10.80;1.67;;;19.40;99.90;;;;;;5071540;28;20233;-69
2021/11/23 09:03:53;;;;;;;7.87;2.23;;;19.40;99.90;;;;;;5071174;28;20190;-70
2021/11/23 09:06:25;;;;;;;9.77;1.83;;;19.30;99.90;;;;;;5073350;28;20239;-69
2021/11/23 09:08:55;;;;;;;13.73;2.57;;;19.20;99.90;;;;;;5070184;28;20229;-69
2021/11/23 09:11:23;;;;;;;10.13;1.93;;;19.20;99.90;;;;;;5071833;28;20176;-70
2021/11/23 09:13:54;;;;;;;15.33;2.43;;;19.20;99.90;;;;;;5069099;28;20227;-71
2021/11/23 09:16:22;;;;;;;16.43;2.00;;;19.20;99.90;;;;;;5071487;28;20187;-70
2021/11/23 09:18:50;;;;;;;10.33;1.47;;;19.20;99.90;;;;;;5070102;28;20230;-69
2021/11/23 09:21:19;;;;;;;14.00;2.20;;;19.20;99.90;;;;;;5073278;28;20497;-70
2021/11/23 09:23:46;;;;;;;13.70;2.23;;;19.20;99.90;;;;;;5072798;28;20190;-69
2021/11/23 09:26:14;;;;;;;10.50;2.00;;;19.20;99.90;;;;;;5067227;28;20714;-70
2021/11/23 09:28:42;;;;;;;14.77;2.80;;;19.30;99.90;;;;;;5071675;28;20179;-70
2021/11/23 09:31:09;;;;;;;10.83;2.30;;;19.20;99.90;;;;;;5072646;28;20186;-71
2021/11/23 09:33:36;;;;;;;12.50;1.50;;;19.20;99.90;;;;;;5072716;28;20190;-71
2021/11/23 09:36:08;;;;;;;16.27;2.50;;;19.20;99.90;;;;;;5072818;28;20534;-73
2021/11/23 09:38:36;;;;;;;15.50;2.00;;;19.20;99.90;;;;;;5072394;28;20183;-70
2021/11/23 09:41:05;;;;;;;12.77;2.50;;;19.20;99.90;;;;;;5071821;28;20179;-70
2021/11/23 09:43:32;;;;;;;9.40;1.40;;;19.20;99.90;;;;;;5072556;28;20218;-71
2021/11/23 09:46:00;;;;;;;10.97;2.17;;;19.20;99.90;;;;;;5070278;28;20279;-68
2021/11/23 09:48:28;;;;;;;12.90;2.17;;;19.20;99.90;;;;;;5072086;28;20190;-71
2021/11/23 09:50:56;;;;;;;11.37;2.27;;;19.20;99.90;;;;;;5071458;28;20175;-71
2021/11/23 09:53:24;;;;;;;10.10;2.20;;;19.20;99.90;;;;;;5072555;28;20194;-71
2021/11/23 09:55:53;;;;;;;10.13;2.13;;;19.20;99.90;;;;;;5071941;28;20633;-71
2021/11/23 09:58:22;;;;;;;9.20;2.00;;;19.20;99.90;;;;;;5072163;28;20309;-70
2021/11/23 10:00:52;;;;;;;12.70;2.10;;;19.20;99.90;;;;;;5072278;28;20257;-71
2021/11/23 10:03:29;;;;;;;9.53;2.43;;;19.20;99.90;;;;;;5071946;28;20196;-71
2021/11/23 10:06:18;;;;;;;10.20;2.40;;;19.10;99.90;;;;;;5072069;28;20175;-71
2021/11/23 10:08:46;;;;;;;13.30;2.33;;;19.20;99.90;;;;;;5071378;28;20646;-71
2021/11/23 10:11:23;;;;;;;14.27;2.43;;;19.10;99.90;;;;;;5071756;28;20175;-71
2021/11/23 10:13:54;;;;;;;13.90;4.77;;;19.10;99.90;;;;;;5070338;28;20206;-71
2021/11/23 10:16:22;;;;;;;14.70;3.17;;;19.10;99.90;;;;;;5072183;28;20194;-71
2021/11/23 10:18:51;;;;;;;12.00;3.10;;;19.20;99.90;;;;;;5070427;28;20191;-71
2021/11/23 10:21:24;;;;;;;14.70;2.47;;;19.20;99.90;;;;;;5071666;28;20246;-71
2021/11/23 10:23:57;;;;;;;11.73;2.13;;;19.10;99.90;;;;;;5102393;28;20206;-71
2021/11/23 10:26:32;;;;;;;13.73;2.63;;;19.10;99.90;;;;;;5071307;28;20632;-71
2021/11/23 10:29:08;;;;;;;14.23;2.63;;;19.10;99.90;;;;;;5070195;28;20186;-71
2021/11/23 10:31:35;;;;;;;9.73;2.60;;;19.10;99.90;;;;;;5070471;28;20175;-71
2021/11/23 10:34:04;;;;;;;9.77;1.60;;;19.10;99.90;;;;;;5070946;28;20179;-71
2021/11/23 10:36:35;;;;;;;15.00;1.93;;;19.10;99.90;;;;;;5070481;28;20215;-71
2021/11/23 10:39:10;;;;;;;10.43;2.17;;;19.10;99.90;;;;;;5071074;28;20199;-71
2021/11/23 10:41:38;;;;;;;15.57;2.33;;;19.10;99.90;;;;;;5071589;28;20214;-71
2021/11/23 10:44:16;;;;;;;13.03;2.20;;;19.10;99.90;;;;;;5071401;28;20197;-71
2021/11/23 10:46:55;;;;;;;11.03;2.20;;;19.00;99.90;;;;;;5071561;28;20202;-71
2021/11/23 10:49:31;;;;;;;14.20;1.70;;;19.00;99.90;;;;;;5070276;28;20612;-71
2021/11/23 10:52:00;;;;;;;16.20;2.10;;;19.00;99.90;;;;;;5069938;28;20187;-71
2021/11/23 10:54:34;;;;;;;17.93;2.70;;;19.00;99.90;;;;;;5071343;28;20252;-71
2021/11/23 10:57:10;;;;;;;12.27;2.00;;;19.10;99.90;;;;;;5069850;28;20214;-70
2021/11/23 10:59:39;;;;;;;9.97;2.10;;;19.10;99.90;;;;;;5071722;28;20244;-71
2021/11/23 11:02:07;;;;;;;13.63;3.73;;;19.00;99.90;;;;;;5071046;28;20183;-71
2021/11/23 11:04:37;;;;;;;14.20;2.70;;;19.00;99.90;;;;;;5071084;28;20614;-71
2021/11/23 11:07:06;;;;;;;14.17;2.87;;;19.00;99.90;;;;;;5070212;28;20199;-71
2021/11/23 11:09:35;;;;;;;18.20;6.57;;;19.10;99.90;;;;;;5071586;28;20664;-71
2021/11/23 11:12:03;;;;;;;18.97;11.40;;;19.10;99.90;;;;;;5070538;28;20540;-71
2021/11/23 11:14:35;;;;;;;11.87;3.40;;;19.10;99.90;;;;;;5068632;28;20591;-71
2021/11/23 11:17:08;;;;;;;9.97;2.43;;;19.10;99.90;;;;;;5070700;28;20703;-71
2021/11/23 11:19:49;;;;;;;15.33;2.70;;;19.10;99.90;;;;;;5070027;28;20187;-71
2021/11/23 11:22:22;;;;;;;15.30;2.97;;;19.10;99.90;;;;;;5069783;28;20222;-71
2021/11/23 11:25:14;;;;;;;12.60;2.13;;;19.10;99.90;;;;;;5070928;28;20179;-71
2021/11/23 11:27:47;;;;;;;9.07;2.53;;;19.10;99.90;;;;;;5070166;28;20608;-72
2021/11/23 11:30:35;;;;;;;13.80;2.47;;;19.10;99.90;;;;;;5069708;28;20236;-71
2021/11/23 11:33:08;;;;;;;11.53;2.33;;;19.10;99.90;;;;;;5069909;28;20171;-71
2021/11/23 11:35:42;;;;;;;10.57;1.97;;;19.10;99.90;;;;;;5071383;28;20175;-71
2021/11/23 11:38:28;;;;;;;10.13;2.70;;;19.10;99.90;;;;;;5069591;28;20583;-71
2021/11/23 11:41:06;;;;;;;14.30;2.10;;;19.20;99.90;;;;;;5069264;28;20252;-71
2021/11/23 11:43:41;;;;;;;15.77;2.33;;;19.20;99.90;;;;;;5073335;28;20183;-71
2021/11/23 11:46:29;;;;;;;9.80;2.00;;;19.20;99.90;;;;;;5074933;28;20189;-71
2021/11/23 11:48:56;;;;;;;11.57;2.00;;;19.20;99.90;;;;;;5073204;28;20213;-70
2021/11/23 11:51:29;;;;;;;12.23;2.90;;;19.20;99.90;;;;;;5073749;28;20186;-70
2021/11/23 11:54:00;;;;;;;13.47;2.47;;;19.20;99.90;;;;;;5073705;28;20274;-71
2021/11/23 11:56:38;;;;;;;11.73;2.43;;;19.20;99.90;;;;;;5074726;28;20183;-71
2021/11/23 11:59:09;;;;;;;14.10;2.53;;;19.20;99.90;;;;;;5074025;28;21073;-70
2021/11/23 12:01:41;;;;;;;18.77;2.73;;;19.20;99.90;;;;;;5074813;28;20176;-70
2021/11/23 12:04:10;;;;;;;11.23;2.43;;;19.20;99.90;;;;;;5074039;28;20223;-70
2021/11/23 12:06:56;;;;;;;8.87;2.10;;;19.20;99.90;;;;;;5074644;28;21187;-71
2021/11/23 12:09:37;;;;;;;15.13;3.03;;;19.20;99.90;;;;;;5073606;28;20187;-70
2021/11/23 12:12:11;;;;;;;12.90;2.23;;;19.20;99.90;;;;;;5074087;28;20730;-70
2021/11/23 12:14:40;;;;;;;10.80;2.80;;;19.20;99.90;;;;;;5070498;28;20223;-71
2021/11/23 12:17:23;;;;;;;11.83;2.47;;;19.20;99.90;;;;;;5073900;28;20201;-71
2021/11/23 12:20:10;;;;;;;17.33;2.90;;;19.20;99.90;;;;;;5071471;28;20216;-71
2021/11/23 12:22:46;;;;;;;21.13;3.23;;;19.20;99.90;;;;;;5072853;28;20657;-71
2021/11/23 12:25:22;;;;;;;9.67;2.53;;;19.20;99.90;;;;;;5071759;28;20277;-71
2021/11/23 12:27:50;;;;;;;17.23;3.27;;;19.20;99.90;;;;;;5073468;28;20201;-72
2021/11/23 12:30:20;;;;;;;11.67;2.10;;;19.20;99.90;;;;;;5072931;28;20186;-71
2021/11/23 12:32:50;;;;;;;15.50;2.90;;;19.10;99.90;;;;;;5073702;28;20171;-72
2021/11/23 12:35:18;;;;;;;15.37;2.50;;;19.10;99.90;;;;;;5070062;28;20196;-71
2021/11/23 12:37:47;;;;;;;16.83;2.87;;;19.10;99.90;;;;;;5073676;28;20297;-71
2021/11/23 12:40:26;;;;;;;12.57;2.57;;;19.10;99.90;;;;;;5074190;28;20277;-71
2021/11/23 12:42:57;;;;;;;17.57;3.07;;;19.10;99.90;;;;;;5074074;28;20198;-71
2021/11/23 12:45:36;;;;;;;13.73;2.50;;;19.10;99.90;;;;;;5074324;28;20179;-71
2021/11/23 12:48:10;;;;;;;10.97;2.43;;;19.10;99.90;;;;;;5073023;28;20171;-71
2021/11/23 12:50:39;;;;;;;16.63;3.23;;;19.10;99.90;;;;;;5073522;28;20179;-71
2021/11/23 12:53:08;;;;;;;21.57;3.50;;;19.10;99.90;;;;;;5072947;28;20175;-72